logo
Search for airport 
image banner adimage banner adimage banner ad
image banner ad

FA0577 - Morning Star Airfield

Located in , South Africa

ICAO - , IATA -

Data provided by Airmate  

General information

Coordinates: S33°45'33" E18°32'54"
Elevation is 226 feet MSL.
 
View others Airports in Western Cape

Operational data

Special qualification required
Current time UTC:
Current local time:
Weather at : - ( 0 km )
METAR: YSDU 171722Z AUTO 00000KT 0100 FZFG BKN001 M00/M01 Q1018 RF00.0/000.0
View NOTAMs / SUP AIP / TFR affecting this airport [VIEW]
Communications frequencies: [VIEW]

Runways:

Airport contact information

Address: South Africa

Satellite view of FA0577